createdAt,value
2023-04-23T00:01:48.224Z,75.56
2023-04-23T00:04:19.407Z,75.48
2023-04-23T00:06:48.126Z,75.28
2023-04-23T00:09:16.934Z,75.82
2023-04-23T00:11:45.164Z,76.00
2023-04-23T00:14:13.487Z,75.74
2023-04-23T00:16:42.225Z,75.73
2023-04-23T00:19:10.039Z,75.76
2023-04-23T00:21:38.108Z,75.83
2023-04-23T00:24:06.614Z,76.03
2023-04-23T00:26:34.457Z,75.88
2023-04-23T00:29:02.244Z,75.67
2023-04-23T00:31:30.060Z,75.66
2023-04-23T00:33:57.902Z,75.60
2023-04-23T00:36:27.048Z,75.57
2023-04-23T00:38:54.914Z,75.46
2023-04-23T00:41:23.651Z,75.42
2023-04-23T00:43:53.204Z,74.91
2023-04-23T00:46:21.976Z,74.81
2023-04-23T00:48:50.920Z,74.73
2023-04-23T00:51:18.767Z,74.66
2023-04-23T00:53:47.254Z,74.33
2023-04-23T00:56:15.679Z,74.20
2023-04-23T00:58:44.964Z,74.01
2023-04-23T01:01:14.228Z,73.82
2023-04-23T01:03:43.178Z,73.66
2023-04-23T01:06:11.092Z,73.44
2023-04-23T01:08:39.162Z,73.59
2023-04-23T01:11:07.506Z,73.44
2023-04-23T01:13:35.792Z,73.03
2023-04-23T01:16:04.101Z,72.90
2023-04-23T01:18:32.047Z,72.63
2023-04-23T01:20:59.948Z,72.61
2023-04-23T01:23:28.140Z,72.73
2023-04-23T01:25:56.277Z,72.40
2023-04-23T01:28:24.506Z,72.24
2023-04-23T01:30:53.140Z,72.26
2023-04-23T01:33:21.244Z,72.44
2023-04-23T01:35:49.469Z,72.59
2023-04-23T01:38:18.100Z,72.50
2023-04-23T01:40:45.987Z,72.54
2023-04-23T01:43:14.384Z,72.34
2023-04-23T01:45:42.467Z,72.27
2023-04-23T01:48:10.360Z,72.10
2023-04-23T01:50:39.259Z,72.18
2023-04-23T01:53:06.992Z,72.18
2023-04-23T01:55:38.005Z,72.29
2023-04-23T01:58:06.665Z,72.00
2023-04-23T02:00:34.435Z,71.90
2023-04-23T02:03:02.581Z,71.79
2023-04-23T02:05:30.558Z,71.79
2023-04-23T02:07:58.363Z,71.74
2023-04-23T02:10:26.171Z,71.86
2023-04-23T02:12:58.053Z,72.00
2023-04-23T02:15:25.926Z,72.27
2023-04-23T02:17:54.496Z,72.47
2023-04-23T02:20:22.662Z,72.54
2023-04-23T02:22:51.214Z,72.42
2023-04-23T02:25:22.094Z,72.39
2023-04-23T02:27:50.666Z,72.25
2023-04-23T02:30:19.567Z,72.21
2023-04-23T02:32:47.611Z,72.19
2023-04-23T02:35:15.420Z,72.11
2023-04-23T02:37:43.222Z,72.14
2023-04-23T02:40:11.700Z,72.16
2023-04-23T02:42:40.316Z,72.15
2023-04-23T02:45:10.175Z,72.13
2023-04-23T02:47:39.595Z,71.91
2023-04-23T02:50:08.117Z,72.00
2023-04-23T02:52:35.972Z,71.89
2023-04-23T02:55:04.978Z,71.94
2023-04-23T02:57:33.050Z,71.79
2023-04-23T03:00:01.190Z,71.70
2023-04-23T03:02:35.534Z,71.69
2023-04-23T03:05:04.733Z,71.93
2023-04-23T03:07:32.452Z,72.01
2023-04-23T03:10:00.217Z,71.82
2023-04-23T03:12:27.959Z,72.02
2023-04-23T03:14:56.038Z,72.11
2023-04-23T03:17:24.730Z,71.87
2023-04-23T03:19:52.764Z,71.75
2023-04-23T03:22:20.851Z,71.62
2023-04-23T03:24:48.630Z,71.49
2023-04-23T03:27:16.448Z,71.27
2023-04-23T03:29:44.398Z,71.65
2023-04-23T03:32:12.162Z,71.53
2023-04-23T03:34:40.174Z,71.44
2023-04-23T03:37:08.150Z,71.67
2023-04-23T03:39:36.897Z,71.87
2023-04-23T03:42:05.553Z,71.80
2023-04-23T03:44:34.197Z,71.47
2023-04-23T03:47:02.536Z,71.59
2023-04-23T03:49:31.849Z,71.49
2023-04-23T03:51:59.752Z,71.34
2023-04-23T03:54:28.699Z,71.39
2023-04-23T03:57:10.154Z,71.21
2023-04-23T03:59:45.530Z,71.41
2023-04-23T04:02:13.516Z,71.36
2023-04-23T04:04:43.303Z,71.41
2023-04-23T04:07:12.354Z,71.51
2023-04-23T04:09:40.300Z,71.58
2023-04-23T04:12:08.355Z,71.37
2023-04-23T04:14:36.145Z,71.35
2023-04-23T04:17:03.881Z,71.33
2023-04-23T04:19:31.554Z,71.17
2023-04-23T04:21:59.984Z,71.18
2023-04-23T04:24:29.059Z,71.38
2023-04-23T04:26:56.997Z,71.01
2023-04-23T04:29:24.783Z,71.15
2023-04-23T04:31:56.824Z,71.27
2023-04-23T04:34:24.622Z,71.00
2023-04-23T04:36:53.969Z,70.92
2023-04-23T04:39:21.756Z,70.80
2023-04-23T04:41:49.737Z,70.90
2023-04-23T04:44:17.744Z,70.74
2023-04-23T04:46:46.119Z,70.52
2023-04-23T04:49:14.136Z,70.63
2023-04-23T04:51:41.931Z,70.29
2023-04-23T04:54:09.839Z,70.25
2023-04-23T04:56:37.639Z,70.16
2023-04-23T04:59:05.453Z,70.25
2023-04-23T05:01:34.665Z,70.08
2023-04-23T05:04:02.757Z,69.92
2023-04-23T05:06:32.441Z,69.99
2023-04-23T05:09:00.363Z,69.79
2023-04-23T05:11:28.161Z,69.85
2023-04-23T05:13:57.042Z,69.69
2023-04-23T05:16:24.876Z,69.50
2023-04-23T05:18:54.674Z,69.30
2023-04-23T05:21:22.757Z,69.03
2023-04-23T05:23:51.369Z,68.61
2023-04-23T05:26:19.365Z,68.46
2023-04-23T05:28:47.243Z,68.09
2023-04-23T05:31:15.208Z,68.02
2023-04-23T05:33:50.081Z,67.99
2023-04-23T05:36:18.747Z,67.83
2023-04-23T05:38:47.510Z,67.29
2023-04-23T05:41:16.066Z,66.53
2023-04-23T05:43:44.144Z,66.03
2023-04-23T05:46:12.019Z,65.75
2023-04-23T05:48:39.794Z,65.68
2023-04-23T05:51:08.693Z,65.33
2023-04-23T05:53:43.977Z,64.76
2023-04-23T05:56:11.691Z,64.29
2023-04-23T05:58:39.773Z,64.04
2023-04-23T06:01:07.544Z,63.61
2023-04-23T06:03:36.392Z,63.65
2023-04-23T06:06:04.486Z,63.20
2023-04-23T06:08:32.200Z,62.36
2023-04-23T06:11:00.242Z,62.47
2023-04-23T06:13:28.642Z,62.13
2023-04-23T06:15:56.935Z,61.94
2023-04-23T06:18:24.759Z,61.53
2023-04-23T06:20:52.648Z,61.18
2023-04-23T06:23:20.510Z,60.99
2023-04-23T06:25:48.308Z,60.52
2023-04-23T06:28:16.200Z,60.48
2023-04-23T06:30:55.307Z,60.15
2023-04-23T06:33:23.709Z,59.66
2023-04-23T06:35:52.194Z,59.15
2023-04-23T06:38:22.978Z,58.43
2023-04-23T06:40:51.011Z,57.92
2023-04-23T06:43:20.210Z,57.82
2023-04-23T06:46:06.358Z,57.13
2023-04-23T06:48:34.152Z,56.41
2023-04-23T06:51:02.141Z,56.09
2023-04-23T06:53:29.955Z,56.13
2023-04-23T06:55:57.919Z,55.98
2023-04-23T06:58:31.226Z,54.98
2023-04-23T07:01:04.185Z,54.71
2023-04-23T07:03:33.145Z,53.64
2023-04-23T07:06:01.298Z,52.93
2023-04-23T07:08:29.099Z,52.76
2023-04-23T07:10:56.934Z,52.63
2023-04-23T07:13:24.808Z,51.86
2023-04-23T07:15:52.515Z,51.26
2023-04-23T07:18:20.346Z,51.26
2023-04-23T07:20:48.243Z,51.24
2023-04-23T07:23:15.969Z,50.12
2023-04-23T07:25:43.682Z,48.76
2023-04-23T07:28:11.505Z,48.52
2023-04-23T07:30:39.392Z,48.54
2023-04-23T07:33:07.538Z,47.65
2023-04-23T07:35:35.338Z,47.15
2023-04-23T07:38:04.284Z,46.81
2023-04-23T07:40:32.060Z,46.70
2023-04-23T07:43:00.065Z,45.98
2023-04-23T07:45:27.885Z,45.23
2023-04-23T07:47:56.519Z,45.25
2023-04-23T07:50:24.574Z,45.52
2023-04-23T07:52:53.694Z,45.05
2023-04-23T07:55:21.817Z,43.14
2023-04-23T07:57:49.668Z,42.50
2023-04-23T08:00:17.884Z,42.30
2023-04-23T08:02:47.259Z,40.81
2023-04-23T08:05:15.245Z,40.33
2023-04-23T08:07:43.063Z,40.10
2023-04-23T08:10:11.027Z,39.50
2023-04-23T08:12:38.812Z,39.54
2023-04-23T08:15:07.253Z,39.60
2023-04-23T08:17:38.088Z,39.53
2023-04-23T08:20:09.158Z,38.68
2023-04-23T08:22:37.005Z,37.70
2023-04-23T08:25:05.388Z,37.97
2023-04-23T08:27:33.147Z,37.80
2023-04-23T08:30:00.891Z,37.77
2023-04-23T08:32:29.614Z,37.71
2023-04-23T08:34:58.765Z,37.61
2023-04-23T08:37:30.849Z,37.50
2023-04-23T08:39:59.283Z,37.19
2023-04-23T08:42:47.520Z,37.10
2023-04-23T08:45:15.397Z,36.35
2023-04-23T08:47:43.798Z,36.49
2023-04-23T08:50:14.133Z,35.61
2023-04-23T08:52:46.462Z,35.67
2023-04-23T08:55:16.412Z,35.62
2023-04-23T08:57:46.096Z,35.16
2023-04-23T09:00:16.537Z,34.80
2023-04-23T09:02:47.014Z,34.71
2023-04-23T09:05:15.787Z,34.08
2023-04-23T09:07:43.991Z,32.77
2023-04-23T09:10:15.304Z,31.52
2023-04-23T09:12:45.274Z,30.85
2023-04-23T09:15:13.855Z,30.75
2023-04-23T09:17:45.981Z,30.44
2023-04-23T09:20:15.175Z,29.00
2023-04-23T09:22:47.408Z,28.47
2023-04-23T09:25:18.304Z,28.76
2023-04-23T09:27:47.426Z,29.12
2023-04-23T09:30:16.591Z,28.28
2023-04-23T09:32:46.183Z,28.78
2023-04-23T09:35:15.934Z,28.89
2023-04-23T09:37:49.338Z,28.61
2023-04-23T09:40:23.256Z,27.12
2023-04-23T09:42:55.773Z,27.21
2023-04-23T09:45:27.309Z,26.71
2023-04-23T09:47:57.724Z,26.62
2023-04-23T09:50:40.242Z,26.90
2023-04-23T09:53:09.985Z,26.74
2023-04-23T09:55:39.437Z,26.60
2023-04-23T09:58:12.688Z,25.56
2023-04-23T10:00:41.012Z,25.97
2023-04-23T10:03:12.673Z,25.95
2023-04-23T10:08:14.711Z,25.58
2023-04-23T10:10:59.402Z,25.35
2023-04-23T10:13:30.838Z,25.44
2023-04-23T10:16:10.258Z,25.33
2023-04-23T10:18:46.862Z,25.20
2023-04-23T10:21:16.467Z,24.56
2023-04-23T10:23:47.362Z,24.20
2023-04-23T10:26:16.751Z,24.62
2023-04-23T10:28:48.121Z,24.09
2023-04-23T10:31:18.350Z,23.57
2023-04-23T10:33:58.332Z,23.85
2023-04-23T10:36:27.784Z,23.42
2023-04-23T10:39:00.311Z,23.01
2023-04-23T10:41:35.728Z,22.59
2023-04-23T10:44:05.370Z,23.09
2023-04-23T10:46:36.414Z,22.94
2023-04-23T10:49:17.204Z,23.38
2023-04-23T10:54:19.878Z,23.51
2023-04-23T10:56:59.120Z,23.22
2023-04-23T10:59:29.838Z,23.21
2023-04-23T11:02:05.584Z,22.75
2023-04-23T11:04:35.029Z,22.43
2023-04-23T11:07:10.611Z,23.35
2023-04-23T11:09:44.600Z,23.29
2023-04-23T11:12:24.746Z,23.13
2023-04-23T11:14:54.872Z,23.02
2023-04-23T11:17:23.511Z,22.58
2023-04-23T11:20:15.106Z,22.27
2023-04-23T11:22:45.273Z,22.59
2023-04-23T11:25:20.348Z,22.19
2023-04-23T11:27:49.668Z,22.57
2023-04-23T11:30:20.966Z,22.81
2023-04-23T11:32:55.533Z,22.99
2023-04-23T11:35:29.447Z,22.75
2023-04-23T11:37:57.435Z,22.78
2023-04-23T11:40:26.156Z,23.14
2023-04-23T11:42:54.975Z,23.38
2023-04-23T11:45:27.724Z,22.55
2023-04-23T11:47:57.587Z,22.34
2023-04-23T11:50:34.166Z,22.16
2023-04-23T11:53:07.554Z,21.37
2023-04-23T11:55:35.412Z,21.23
2023-04-23T11:58:03.930Z,21.35
2023-04-23T12:00:31.626Z,21.49
2023-04-23T12:03:04.576Z,22.00
2023-04-23T12:05:36.823Z,21.86
2023-04-23T12:08:16.691Z,21.92
2023-04-23T12:10:47.851Z,21.21
2023-04-23T12:13:27.371Z,21.62
2023-04-23T12:16:05.453Z,21.87
2023-04-23T12:18:42.405Z,22.15
2023-04-23T12:21:13.427Z,22.35
2023-04-23T12:23:45.192Z,22.64
2023-04-23T12:26:15.799Z,22.66
2023-04-23T12:28:53.722Z,22.36
2023-04-23T12:31:28.994Z,22.31
2023-04-23T12:34:07.885Z,22.52
2023-04-23T12:36:41.025Z,23.17
2023-04-23T12:39:31.775Z,23.20
2023-04-23T12:42:04.771Z,23.15
2023-04-23T12:44:35.369Z,23.00
2023-04-23T12:47:05.950Z,23.56
2023-04-23T12:49:35.747Z,24.15
2023-04-23T12:52:04.855Z,24.46
2023-04-23T12:54:38.429Z,24.38
2023-04-23T12:57:08.341Z,23.89
2023-04-23T12:59:36.247Z,24.36
2023-04-23T13:02:04.692Z,24.41
2023-04-23T13:04:34.480Z,24.40
2023-04-23T13:07:03.109Z,24.64
2023-04-23T13:09:31.013Z,24.95
2023-04-23T13:12:00.495Z,25.26
2023-04-23T13:14:29.219Z,25.54
2023-04-23T13:16:59.285Z,25.68
2023-04-23T13:19:27.118Z,25.59
2023-04-23T13:21:54.869Z,25.74
2023-04-23T13:24:22.599Z,25.68
2023-04-23T13:26:50.446Z,25.78
2023-04-23T13:29:18.171Z,25.37
2023-04-23T13:31:45.939Z,25.62
2023-04-23T13:34:13.730Z,25.47
2023-04-23T13:36:41.764Z,25.36
2023-04-23T13:55:26.641Z,25.65
2023-04-23T13:57:57.835Z,25.35
2023-04-23T14:00:28.636Z,25.38
2023-04-23T14:02:56.669Z,25.41
2023-04-23T14:05:24.766Z,25.69
2023-04-23T14:07:52.571Z,25.78
2023-04-23T14:10:20.388Z,25.68
2023-04-23T14:12:49.053Z,25.80
2023-04-23T14:15:17.466Z,25.65
2023-04-23T14:17:45.949Z,25.59
2023-04-23T14:20:15.656Z,25.58
2023-04-23T14:22:44.209Z,25.61
2023-04-23T14:25:23.626Z,25.67
2023-04-23T14:27:55.172Z,25.78
2023-04-23T14:30:26.254Z,25.90
2023-04-23T14:32:56.450Z,25.84
2023-04-23T14:35:39.529Z,25.96
2023-04-23T14:38:10.702Z,26.09
2023-04-23T14:40:38.515Z,26.05
2023-04-23T14:43:14.919Z,26.07
2023-04-23T14:45:46.032Z,26.11
2023-04-23T14:48:13.878Z,25.80
2023-04-23T14:50:42.107Z,25.61
2023-04-23T14:53:10.802Z,25.17
2023-04-23T14:55:40.180Z,25.30
2023-04-23T14:58:08.146Z,25.39
2023-04-23T15:00:36.128Z,25.27
2023-04-23T15:03:10.562Z,25.59
2023-04-23T15:05:40.055Z,25.73
2023-04-23T15:08:07.992Z,25.54
2023-04-23T15:10:36.113Z,25.33
2023-04-23T15:13:11.411Z,25.29
2023-04-23T15:15:55.526Z,25.19
2023-04-23T15:18:23.389Z,25.36
2023-04-23T15:20:51.373Z,25.37
2023-04-23T15:23:21.565Z,25.16
2023-04-23T15:25:49.851Z,25.20
2023-04-23T15:28:17.912Z,25.34
2023-04-23T15:30:47.566Z,25.35
2023-04-23T15:33:15.352Z,25.47
2023-04-23T15:35:43.120Z,25.55
2023-04-23T15:38:10.845Z,25.65
2023-04-23T15:40:42.506Z,25.58
2023-04-23T15:43:13.381Z,25.60
2023-04-23T15:45:41.512Z,25.89
2023-04-23T15:48:10.113Z,26.22
2023-04-23T15:50:37.960Z,26.50
2023-04-23T15:53:05.844Z,26.83
2023-04-23T15:55:34.182Z,27.08
2023-04-23T15:58:03.585Z,27.41
2023-04-23T16:00:33.672Z,27.63
2023-04-23T16:03:04.481Z,28.22
2023-04-23T16:05:32.830Z,28.31
2023-04-23T16:08:00.732Z,28.38
2023-04-23T16:10:31.490Z,28.56
2023-04-23T16:12:59.527Z,28.76
2023-04-23T16:15:28.165Z,28.95
2023-04-23T16:17:56.454Z,28.99
2023-04-23T16:20:24.896Z,29.56
2023-04-23T16:22:52.882Z,29.78
2023-04-23T16:25:21.044Z,30.11
2023-04-23T16:27:49.035Z,30.06
2023-04-23T16:30:16.957Z,30.36
2023-04-23T16:32:44.957Z,30.85
2023-04-23T16:35:12.824Z,30.70
2023-04-23T16:37:40.559Z,30.87
2023-04-23T16:40:09.159Z,30.99
2023-04-23T16:42:37.013Z,30.79
2023-04-23T16:45:05.214Z,30.96
2023-04-23T16:47:33.366Z,31.04
2023-04-23T16:50:02.038Z,31.05
2023-04-23T16:52:29.814Z,31.12
2023-04-23T16:54:57.593Z,31.35
2023-04-23T16:57:26.097Z,31.45
2023-04-23T16:59:54.559Z,31.54
2023-04-23T17:02:22.542Z,31.59
2023-04-23T17:04:50.526Z,31.98
2023-04-23T17:07:18.406Z,31.99
2023-04-23T17:09:46.378Z,32.08
2023-04-23T17:12:14.109Z,32.30
2023-04-23T17:14:42.080Z,32.38
2023-04-23T17:17:10.278Z,32.46
2023-04-23T17:19:38.169Z,32.80
2023-04-23T17:22:07.781Z,33.16
2023-04-23T17:24:36.988Z,33.11
2023-04-23T17:27:06.410Z,33.30
2023-04-23T17:29:34.297Z,33.41
2023-04-23T17:32:02.923Z,33.60
2023-04-23T17:34:31.021Z,33.68
2023-04-23T17:36:58.825Z,33.90
2023-04-23T17:39:26.563Z,34.17
2023-04-23T17:41:56.113Z,34.44
2023-04-23T17:44:23.875Z,34.78
2023-04-23T17:46:54.070Z,34.99
2023-04-23T17:49:22.492Z,35.06
2023-04-23T17:51:50.411Z,35.07
2023-04-23T17:54:18.308Z,35.28
2023-04-23T17:56:46.198Z,35.33
2023-04-23T17:59:14.079Z,35.55
2023-04-23T18:01:42.098Z,36.14
2023-04-23T18:04:10.257Z,36.04
2023-04-23T18:06:38.095Z,36.44
2023-04-23T18:09:06.066Z,36.65
2023-04-23T18:11:33.917Z,36.90
2023-04-23T18:14:02.181Z,37.37
2023-04-23T18:16:30.021Z,37.28
2023-04-23T18:18:57.820Z,38.21
2023-04-23T18:21:26.274Z,38.17
2023-04-23T18:23:53.993Z,38.32
2023-04-23T18:26:22.283Z,38.32
2023-04-23T18:28:49.978Z,39.02
2023-04-23T18:31:18.320Z,38.94
2023-04-23T18:33:59.620Z,39.40
2023-04-23T18:36:37.501Z,39.47
2023-04-23T18:39:07.395Z,40.06
2023-04-23T18:41:36.127Z,40.15
2023-04-23T18:44:03.989Z,40.27
2023-04-23T18:46:32.066Z,40.60
2023-04-23T18:49:08.625Z,40.56
2023-04-23T18:51:51.111Z,40.79
2023-04-23T18:54:18.825Z,40.80
2023-04-23T18:56:47.294Z,41.29
2023-04-23T18:59:15.115Z,41.40
2023-04-23T19:01:44.691Z,41.50
2023-04-23T19:04:12.725Z,41.41
2023-04-23T19:06:41.285Z,41.76
2023-04-23T19:09:09.044Z,42.03
2023-04-23T19:11:38.146Z,42.04
2023-04-23T19:14:05.966Z,42.06
2023-04-23T19:16:34.088Z,42.18
2023-04-23T19:19:01.861Z,42.29
2023-04-23T19:21:29.680Z,42.68
2023-04-23T19:23:57.424Z,42.61
2023-04-23T19:26:25.125Z,42.90
2023-04-23T19:28:53.550Z,43.12
2023-04-23T19:31:21.361Z,43.34
2023-04-23T19:33:49.332Z,43.54
2023-04-23T19:36:17.184Z,43.72
2023-04-23T19:38:45.229Z,44.14
2023-04-23T19:41:13.014Z,44.26
2023-04-23T19:43:41.495Z,44.24
2023-04-23T19:46:09.208Z,44.35
2023-04-23T19:48:37.412Z,44.29
2023-04-23T19:51:05.311Z,44.47
2023-04-23T19:53:33.200Z,44.78
2023-04-23T19:56:00.985Z,44.67
2023-04-23T19:58:28.724Z,44.98
2023-04-23T20:00:56.812Z,45.12
2023-04-23T20:03:24.831Z,45.19
2023-04-23T20:05:56.246Z,45.13
2023-04-23T20:08:29.471Z,45.52
2023-04-23T20:10:57.369Z,45.34
2023-04-23T20:13:25.194Z,45.43
2023-04-23T20:15:53.762Z,45.55
2023-04-23T20:18:21.708Z,45.63
2023-04-23T20:20:49.873Z,45.62
2023-04-23T20:23:17.704Z,45.78
2023-04-23T20:25:45.803Z,45.93
2023-04-23T20:28:13.652Z,45.76
2023-04-23T20:30:41.457Z,46.11
2023-04-23T20:33:10.585Z,46.10
2023-04-23T20:35:39.766Z,46.12
2023-04-23T20:38:07.927Z,46.14
2023-04-23T20:40:35.649Z,46.54
2023-04-23T20:43:04.689Z,47.57
2023-04-23T20:45:34.196Z,47.79
2023-04-23T20:48:02.406Z,47.42
2023-04-23T20:50:30.453Z,47.53
2023-04-23T20:52:58.215Z,48.07
2023-04-23T20:55:26.020Z,47.92
2023-04-23T20:57:53.791Z,47.78
2023-04-23T21:00:22.371Z,47.87
2023-04-23T21:02:50.248Z,48.68
2023-04-23T21:05:18.156Z,48.89
2023-04-23T21:07:46.484Z,48.64
2023-04-23T21:10:14.448Z,48.93
2023-04-23T21:12:43.401Z,49.79
2023-04-23T21:15:13.896Z,49.48
2023-04-23T21:17:41.936Z,49.82
2023-04-23T21:20:10.445Z,49.71
2023-04-23T21:22:38.228Z,49.63
2023-04-23T21:25:06.683Z,49.83
2023-04-23T21:27:34.504Z,49.99
2023-04-23T21:30:08.649Z,50.08
2023-04-23T21:32:36.548Z,50.02
2023-04-23T21:35:05.071Z,50.07
2023-04-23T21:37:33.334Z,50.25
2023-04-23T21:40:01.270Z,50.21
2023-04-23T21:42:29.058Z,50.37
2023-04-23T21:44:56.797Z,50.62
2023-04-23T21:47:24.562Z,50.74
2023-04-23T21:49:52.483Z,50.69
2023-04-23T21:52:20.460Z,50.80
2023-04-23T21:54:48.281Z,50.87
2023-04-23T21:57:16.119Z,51.31
2023-04-23T21:59:44.099Z,51.67
2023-04-23T22:02:12.269Z,51.82
2023-04-23T22:04:40.439Z,51.82
2023-04-23T22:07:12.513Z,51.90
2023-04-23T22:09:41.501Z,51.73
2023-04-23T22:12:10.015Z,52.07
2023-04-23T22:14:37.891Z,52.68
2023-04-23T22:17:07.541Z,52.90
2023-04-23T22:19:35.852Z,53.05
2023-04-23T22:22:03.761Z,53.50
2023-04-23T22:24:31.467Z,54.17
2023-04-23T22:26:59.816Z,54.54
2023-04-23T22:29:27.652Z,54.61
2023-04-23T22:31:55.414Z,54.63
2023-04-23T22:34:24.923Z,54.83
2023-04-23T22:36:52.731Z,54.97
2023-04-23T22:39:20.559Z,55.35
2023-04-23T22:41:48.437Z,55.79
2023-04-23T22:44:16.289Z,55.68
2023-04-23T22:46:45.812Z,54.87
2023-04-23T22:49:14.325Z,55.79
2023-04-23T22:51:42.126Z,56.70
2023-04-23T22:54:10.277Z,57.47
2023-04-23T22:56:38.183Z,57.72
2023-04-23T22:59:06.166Z,58.30
2023-04-23T23:01:34.550Z,58.54
2023-04-23T23:04:02.426Z,58.99
2023-04-23T23:06:30.580Z,59.38
2023-04-23T23:08:58.315Z,59.73
2023-04-23T23:11:28.733Z,60.37
2023-04-23T23:13:56.503Z,60.88
2023-04-23T23:16:24.435Z,60.92
2023-04-23T23:18:52.398Z,61.28
2023-04-23T23:21:20.727Z,61.69
2023-04-23T23:23:48.571Z,62.00
2023-04-23T23:26:16.393Z,61.85
2023-04-23T23:28:44.364Z,61.88
2023-04-23T23:31:12.235Z,62.27
2023-04-23T23:33:40.166Z,62.31
2023-04-23T23:36:09.016Z,62.73
2023-04-23T23:38:36.787Z,62.96
2023-04-23T23:41:04.566Z,62.82
2023-04-23T23:43:32.329Z,63.40
2023-04-23T23:46:00.057Z,64.24
2023-04-23T23:48:27.998Z,64.68
2023-04-23T23:50:55.762Z,64.99
2023-04-23T23:53:23.788Z,65.07
2023-04-23T23:55:51.620Z,65.19
2023-04-23T23:58:19.439Z,65.39
